CYTQ

Tasiujaq Airport

Tasiujaq, Quebec, Canada
METAR CYTQ 181300Z 22016KT 15SM FEW035 FEW070 M35/M40 A2988 RMK SC1AC1 SC TR AC TR SLP126
Observed Flight Rules
Jan-18 @ 13:00 UTC (44 minutes ago) Visual Flight Rules
Wind Visibility Clouds
220° at 16 knots 15 miles
  • Few at 3,500' AGL
  • Few at 7,000' AGL
Temperatures Readings
Current -35°C / -31°F
Dewpoint -40°C / -40°F
Humidity 60%
Altimeter 29.88" Hg
Pressure 1012.6 hPa
Elevation 31
METAR CYTQ 181300Z 22016KT 15SM FEW035 FEW070 M35/M40 A2988 RMK SC1AC1 SC TR AC TR SLP126
Observed Flight Rules
Jan-18 @ 13:00 UTC
(44 minutes ago)
VFR
Wind Visibility
220° at 16 knots 15 miles
Clouds
  • Few at 3,500' AGL
  • Few at 7,000' AGL
Temperature Dewpoint
-35°C / -31°F -40°C / -40°F
Humidity Altimeter Pressure
60% 29.88" Hg 1012.6 hPa